Time;durP1;ratioP1;P1;durP2;ratioP2;P2;SDS_P1;SDS_P2;PMS_P1;PMS_P2;Temp;Humidity;BMP_temperature;BMP_pressure;BME280_temperature;BME280_humidity;BME280_pressure;Samples;Min_cycle;Max_cycle;Signal;HPM_P1;HPM_P2
2021/12/25 00:00:49;;;;;;;25.20;14.60;;;;;;;5.44;100.00;100577.69;5042417;28;20025;-74
2021/12/25 00:03:16;;;;;;;19.45;12.82;;;;;;;5.12;100.00;100572.97;5039061;28;20140;-74
2021/12/25 00:05:42;;;;;;;21.15;13.88;;;;;;;5.10;100.00;100572.41;5041992;28;20029;-74
2021/12/25 00:08:07;;;;;;;21.85;14.65;;;;;;;5.46;100.00;100580.16;5042928;28;20398;-75
2021/12/25 00:10:32;;;;;;;22.80;15.32;;;;;;;5.07;100.00;100574.81;5060105;28;20442;-75
2021/12/25 00:12:59;;;;;;;26.55;15.88;;;;;;;5.51;100.00;100575.63;5040972;28;20040;-75
2021/12/25 00:15:25;;;;;;;26.92;16.58;;;;;;;5.05;100.00;100583.22;5006737;28;20032;-74
2021/12/25 00:17:50;;;;;;;27.00;16.88;;;;;;;5.15;100.00;100583.34;5041410;28;20028;-76
2021/12/25 00:20:16;;;;;;;27.45;17.55;;;;;;;5.09;100.00;100587.06;5041369;28;20052;-74
2021/12/25 00:22:42;;;;;;;31.30;19.73;;;;;;;4.94;100.00;100586.88;5056230;28;20032;-75
2021/12/25 00:25:08;;;;;;;30.17;19.63;;;;;;;5.09;100.00;100587.06;5044554;28;20102;-74
2021/12/25 00:27:45;;;;;;;33.00;19.35;;;;;;;4.75;100.00;100589.84;5029557;28;20479;-75
2021/12/25 00:30:21;;;;;;;33.03;19.48;;;;;;;5.07;100.00;100596.56;5043604;28;20355;-75
2021/12/25 00:35:21;;;;;;;29.75;18.92;;;;;;;4.73;100.00;100592.00;5066054;28;20032;-74
2021/12/25 00:37:47;;;;;;;31.20;18.70;;;;;;;4.40;100.00;100593.69;5056691;28;20044;-76
2021/12/25 00:40:13;;;;;;;27.40;18.15;;;;;;;4.63;100.00;100591.06;5045257;28;20025;-75
2021/12/25 00:42:39;;;;;;;30.13;19.63;;;;;;;4.61;100.00;100594.00;5066750;28;20028;-76
2021/12/25 00:45:05;;;;;;;30.25;18.27;;;;;;;4.42;100.00;100591.53;5043238;28;20454;-74
2021/12/25 00:47:30;;;;;;;31.58;20.40;;;;;;;4.49;100.00;100587.84;5045489;28;20036;-74
2021/12/25 00:49:55;;;;;;;35.20;20.92;;;;;;;4.35;100.00;100592.78;5047123;28;20037;-74
2021/12/25 00:52:21;;;;;;;37.00;20.80;;;;;;;4.53;100.00;100594.44;5057776;28;20568;-73
2021/12/25 00:54:47;;;;;;;30.38;19.20;;;;;;;4.28;100.00;100594.81;5057860;28;20025;-75
2021/12/25 00:57:12;;;;;;;29.75;19.73;;;;;;;4.21;100.00;100603.13;5058146;28;20112;-75
2021/12/25 00:59:37;;;;;;;31.65;20.35;;;;;;;4.11;100.00;100592.09;5026911;28;20036;-74
2021/12/25 01:02:04;;;;;;;31.30;19.73;;;;;;;4.03;100.00;100598.75;5059588;28;20021;-75
2021/12/25 01:04:30;;;;;;;29.13;19.38;;;;;;;4.29;100.00;100602.72;5023797;28;20219;-74
2021/12/25 01:06:55;;;;;;;30.90;18.73;;;;;;;4.19;100.00;100603.38;5064915;28;20188;-75
2021/12/25 01:09:21;;;;;;;29.27;18.77;;;;;;;4.15;100.00;100601.38;5055575;28;20028;-74
2021/12/25 01:11:49;;;;;;;33.78;20.27;;;;;;;4.02;100.00;100599.84;5062632;28;20028;-75
2021/12/25 01:14:37;;;;;;;35.25;20.17;;;;;;;4.11;100.00;100602.97;5069734;28;20036;-73
2021/12/25 01:17:32;;;;;;;30.05;18.63;;;;;;;4.00;100.00;100600.06;5044147;28;20391;-74
2021/12/25 01:30:34;;;;;;;35.90;20.80;;;;;;;3.68;100.00;100600.56;5059329;28;20469;-74
2021/12/25 01:33:26;;;;;;;32.78;19.20;;;;;;;3.69;100.00;100606.84;5043640;28;20082;-74
2021/12/25 01:49:04;;;;;;;32.67;19.45;;;;;;;3.87;100.00;100589.53;5052226;28;20438;-76
2021/12/25 01:51:29;;;;;;;31.58;19.48;;;;;;;3.91;100.00;100584.44;5042427;28;20550;-75
2021/12/25 01:53:55;;;;;;;28.98;19.63;;;;;;;3.59;100.00;100583.06;5053689;28;20044;-74
2021/12/25 01:56:22;;;;;;;29.60;20.08;;;;;;;3.63;100.00;100584.22;5030426;28;20521;-73
2021/12/25 01:58:49;;;;;;;32.20;19.63;;;;;;;3.62;100.00;100588.00;5023895;28;20033;-73
2021/12/25 02:01:15;;;;;;;24.92;17.80;;;;;;;3.73;100.00;100589.00;5034470;28;20127;-73
2021/12/25 02:03:41;;;;;;;27.15;18.88;;;;;;;3.63;100.00;100589.63;5029305;28;20190;-73
2021/12/25 02:06:11;;;;;;;29.55;19.08;;;;;;;3.60;100.00;100592.81;5041858;28;20121;-73
2021/12/25 02:08:39;;;;;;;28.55;19.23;;;;;;;3.54;100.00;100592.97;5043649;28;20036;-73
2021/12/25 02:11:05;;;;;;;26.50;18.02;;;;;;;3.35;100.00;100598.56;5063454;28;20028;-74
2021/12/25 02:13:30;;;;;;;26.45;18.48;;;;;;;3.45;100.00;100609.59;5041372;28;20141;-74
2021/12/25 02:15:58;;;;;;;29.58;19.38;;;;;;;3.85;100.00;100605.22;5049133;28;20086;-75
2021/12/25 02:18:56;;;;;;;26.17;18.63;;;;;;;3.68;100.00;100600.56;5041351;28;20550;-75
2021/12/25 02:21:19;;;;;;;25.67;18.15;;;;;;;3.76;100.00;100607.50;5051413;28;20052;-73
2021/12/25 02:23:46;;;;;;;25.83;19.35;;;;;;;3.53;100.00;100605.72;5053633;28;20047;-75
2021/12/25 02:26:12;;;;;;;26.10;19.15;;;;;;;3.59;100.00;100607.47;5042495;28;20115;-73
2021/12/25 02:28:38;;;;;;;29.33;20.80;;;;;;;3.50;100.00;100606.19;5043817;28;20459;-74
2021/12/25 02:31:10;;;;;;;28.83;19.63;;;;;;;3.50;100.00;100603.47;4965810;28;1820151;-75
2021/12/25 02:33:36;;;;;;;28.13;19.73;;;;;;;3.22;100.00;100615.09;5054683;28;20147;-73
2021/12/25 02:36:03;;;;;;;26.67;20.33;;;;;;;3.21;100.00;100616.97;5044427;28;20120;-74
2021/12/25 02:38:29;;;;;;;27.48;19.52;;;;;;;3.10;100.00;100617.84;5042537;28;20794;-76
2021/12/25 02:40:55;;;;;;;25.27;19.10;;;;;;;3.20;100.00;100622.63;5057923;28;20025;-74
2021/12/25 02:43:21;;;;;;;23.27;18.92;;;;;;;3.14;100.00;100613.56;5042794;28;20025;-73
2021/12/25 02:45:46;;;;;;;25.10;19.67;;;;;;;3.33;100.00;100616.13;5044980;28;20123;-75
2021/12/25 02:48:16;;;;;;;25.73;19.33;;;;;;;3.03;100.00;100622.53;5052520;28;20031;-74
2021/12/25 02:50:42;;;;;;;22.95;17.98;;;;;;;3.10;100.00;100615.94;5048312;28;20458;-74
2021/12/25 02:53:09;;;;;;;23.67;18.77;;;;;;;3.09;100.00;100617.00;5045517;28;20087;-75
2021/12/25 02:55:37;;;;;;;23.88;18.52;;;;;;;3.06;100.00;100616.66;5047493;28;20256;-72
2021/12/25 02:58:03;;;;;;;25.90;18.83;;;;;;;3.02;100.00;100618.19;5051234;28;20079;-74
2021/12/25 03:00:39;;;;;;;23.35;18.50;;;;;;;3.19;100.00;100621.00;5044928;28;20032;-73
2021/12/25 03:03:07;;;;;;;25.17;17.80;;;;;;;3.09;100.00;100621.59;5051928;28;20028;-73
2021/12/25 03:05:32;;;;;;;24.65;18.58;;;;;;;3.03;100.00;100630.66;5058472;28;20043;-73
2021/12/25 03:07:58;;;;;;;21.35;16.27;;;;;;;2.98;100.00;100625.13;5067672;28;20028;-74
2021/12/25 03:10:24;;;;;;;21.77;16.80;;;;;;;2.82;100.00;100627.50;5066459;28;20087;-73
2021/12/25 03:12:53;;;;;;;22.48;16.42;;;;;;;2.84;100.00;100630.00;5067045;28;20032;-73
2021/12/25 03:15:30;;;;;;;20.00;15.80;;;;;;;2.80;100.00;100629.63;5048578;28;20045;-73
2021/12/25 03:17:57;;;;;;;24.63;17.23;;;;;;;2.78;100.00;100617.38;5027656;28;20621;-75
2021/12/25 03:20:23;;;;;;;20.75;16.23;;;;;;;2.71;100.00;100623.72;5043869;28;20041;-74
2021/12/25 03:22:49;;;;;;;22.02;15.90;;;;;;;2.88;100.00;100637.38;5050063;28;20598;-74
2021/12/25 03:25:17;;;;;;;20.33;15.90;;;;;;;2.90;100.00;100623.59;5045906;28;20079;-72
2021/12/25 03:27:45;;;;;;;22.77;16.60;;;;;;;3.14;100.00;100640.66;5029302;28;20033;-73
2021/12/25 03:30:15;;;;;;;21.83;16.25;;;;;;;2.87;100.00;100646.59;5054136;28;20044;-74
2021/12/25 03:32:41;;;;;;;21.88;16.00;;;;;;;2.80;100.00;100640.44;5062861;28;20168;-73
2021/12/25 03:35:06;;;;;;;22.13;16.33;;;;;;;2.95;100.00;100639.97;5048315;28;20131;-74
2021/12/25 03:37:32;;;;;;;21.30;16.23;;;;;;;2.84;100.00;100638.13;5061065;28;20048;-72
2021/12/25 03:39:57;;;;;;;23.08;17.65;;;;;;;2.78;100.00;100656.09;5066034;28;20138;-73
2021/12/25 03:42:23;;;;;;;21.40;16.00;;;;;;;2.85;100.00;100653.28;5062995;28;20138;-73
2021/12/25 03:44:48;;;;;;;22.80;17.42;;;;;;;2.67;100.00;100655.06;5050122;28;20032;-72
2021/12/25 03:47:28;;;;;;;23.23;18.38;;;;;;;2.74;100.00;100665.78;5025415;28;20025;-74
2021/12/25 03:58:14;;;;;;;26.92;18.25;;;;;;;2.52;100.00;100668.19;5049287;28;20075;-72
2021/12/25 04:00:41;;;;;;;25.90;17.88;;;;;;;2.69;100.00;100671.03;5028542;28;20076;-73
2021/12/25 04:03:10;;;;;;;24.98;17.65;;;;;;;2.51;100.00;100666.53;5061713;28;20020;-73
2021/12/25 04:05:39;;;;;;;23.73;16.95;;;;;;;2.52;100.00;100660.06;5050040;28;20125;-72
2021/12/25 04:08:10;;;;;;;25.75;18.60;;;;;;;2.60;100.00;100672.47;5047248;28;20199;-74
2021/12/25 04:10:40;;;;;;;27.45;18.77;;;;;;;2.71;100.00;100674.34;5044896;28;20051;-73
2021/12/25 04:13:10;;;;;;;26.08;18.60;;;;;;;2.69;100.00;100671.03;5044830;28;20032;-74
2021/12/25 04:15:36;;;;;;;24.77;17.67;;;;;;;2.79;100.00;100679.44;5046415;28;20160;-73
2021/12/25 04:18:03;;;;;;;29.00;20.13;;;;;;;2.49;100.00;100677.63;5062680;28;20028;-74
2021/12/25 04:20:29;;;;;;;30.10;19.13;;;;;;;2.51;100.00;100685.47;5063447;28;20024;-74
2021/12/25 04:23:02;;;;;;;31.33;19.73;;;;;;;2.49;100.00;100677.63;5053145;28;20025;-73
2021/12/25 04:25:31;;;;;;;30.13;19.70;;;;;;;2.40;100.00;100681.72;5061922;28;20027;-74
2021/12/25 04:28:03;;;;;;;28.48;19.58;;;;;;;2.43;100.00;100678.53;5047403;28;20028;-73
2021/12/25 04:49:47;;;;;;;29.90;20.33;;;;;;;2.38;100.00;100709.00;5062368;28;20059;-73
2021/12/25 05:05:30;;;;;;;28.42;18.80;;;;;;;2.34;100.00;100732.16;5055665;28;20048;-74
2021/12/25 05:07:55;;;;;;;27.80;18.90;;;;;;;2.31;100.00;100739.91;5066866;28;20032;-73
2021/12/25 05:10:21;;;;;;;26.80;17.45;;;;;;;2.07;100.00;100729.00;5064010;28;20318;-73
2021/12/25 05:12:46;;;;;;;29.20;17.73;;;;;;;2.00;100.00;100733.66;5052149;28;20580;-74
2021/12/25 05:15:12;;;;;;;25.92;17.45;;;;;;;1.92;100.00;100736.66;5035958;28;20033;-74
2021/12/25 05:17:37;;;;;;;27.80;17.48;;;;;;;1.93;100.00;100732.94;5041790;28;20480;-73
2021/12/25 05:20:04;;;;;;;26.73;17.13;;;;;;;2.05;100.00;100736.53;5032835;28;20025;-74
2021/12/25 05:22:30;;;;;;;27.27;18.17;;;;;;;1.99;100.00;100742.84;5029198;28;20189;-73
2021/12/25 05:24:55;;;;;;;29.00;17.05;;;;;;;2.02;100.00;100743.19;5058492;28;20052;-74
2021/12/25 05:27:21;;;;;;;25.77;17.48;;;;;;;1.76;100.00;100741.66;5065258;28;20056;-74
2021/12/25 05:29:47;;;;;;;26.40;15.90;;;;;;;1.73;100.00;100758.31;5045745;28;20404;-73
2021/12/25 05:32:16;;;;;;;23.95;17.42;;;;;;;1.68;100.00;100747.34;5043879;28;20055;-73
2021/12/25 05:34:41;;;;;;;24.00;15.68;;;;;;;1.85;100.00;100744.88;5056906;28;20376;-74
2021/12/25 05:37:07;;;;;;;24.30;16.05;;;;;;;1.97;100.00;100755.78;5046419;28;20090;-72
2021/12/25 05:39:32;;;;;;;25.30;15.95;;;;;;;1.81;100.00;100755.31;5063312;28;20032;-72
2021/12/25 05:41:58;;;;;;;25.23;16.77;;;;;;;1.89;100.00;100751.47;5027714;28;20115;-73
2021/12/25 05:44:24;;;;;;;26.08;15.45;;;;;;;1.73;100.00;100761.03;5047120;28;20024;-73
2021/12/25 05:46:49;;;;;;;20.90;14.77;;;;;;;1.67;100.00;100751.09;5066125;28;20051;-72
2021/12/25 05:49:15;;;;;;;23.33;14.65;;;;;;;1.55;100.00;100766.44;5063887;28;20029;-74
2021/12/25 05:51:40;;;;;;;22.48;15.10;;;;;;;1.57;100.00;100748.91;5064089;28;20078;-73
2021/12/25 05:54:06;;;;;;;20.98;13.40;;;;;;;1.37;100.00;100751.84;5052532;28;20026;-73
2021/12/25 05:56:32;;;;;;;21.05;13.63;;;;;;;1.32;100.00;100759.78;5010606;28;20028;-73
2021/12/25 05:58:58;;;;;;;17.70;11.23;;;;;;;1.32;100.00;100764.38;5060278;28;20035;-73
2021/12/25 06:01:25;;;;;;;16.42;12.32;;;;;;;1.29;100.00;100765.63;5032149;28;20021;-73
2021/12/25 06:03:50;;;;;;;18.85;11.90;;;;;;;1.41;100.00;100774.66;5022522;28;20456;-73
2021/12/25 06:06:16;;;;;;;15.82;11.38;;;;;;;1.39;100.00;100765.13;5027606;28;20052;-73
2021/12/25 06:08:41;;;;;;;16.55;10.55;;;;;;;1.37;100.00;100778.03;5051358;28;20036;-75
2021/12/25 06:11:07;;;;;;;18.15;12.20;;;;;;;1.39;100.00;100765.13;5043135;28;20035;-74
2021/12/25 06:13:38;;;;;;;17.17;10.60;;;;;;;1.37;100.00;100786.97;5047172;28;20028;-74
2021/12/25 06:16:04;;;;;;;15.55;9.98;;;;;;;1.00;100.00;100778.78;5064628;28;20463;-72
2021/12/25 06:18:30;;;;;;;15.77;10.30;;;;;;;1.27;100.00;100781.25;5052889;28;20071;-72
2021/12/25 06:20:55;;;;;;;13.35;8.20;;;;;;;1.16;100.00;100781.97;5012162;28;20119;-73
2021/12/25 06:23:21;;;;;;;11.73;7.68;;;;;;;1.02;100.00;100781.25;5048601;28;20161;-73
2021/12/25 06:25:46;;;;;;;11.23;7.68;;;;;;;0.95;100.00;100781.28;5039131;28;20032;-73
2021/12/25 06:28:11;;;;;;;10.10;7.20;;;;;;;1.06;100.00;100783.28;5065954;28;20444;-72
2021/12/25 06:30:38;;;;;;;11.00;7.07;;;;;;;0.86;100.00;100782.63;5027125;28;20145;-73
2021/12/25 06:33:04;;;;;;;9.15;6.68;;;;;;;0.84;100.00;100787.41;5010792;28;20509;-73
2021/12/25 06:35:31;;;;;;;9.95;6.38;;;;;;;1.22;100.00;100795.41;5026817;28;20033;-74
2021/12/25 06:37:56;;;;;;;10.48;6.72;;;;;;;0.96;100.00;100793.75;5044852;28;20043;-74
2021/12/25 06:40:22;;;;;;;9.50;5.72;;;;;;;1.01;100.00;100793.91;5058465;28;20041;-73
2021/12/25 06:42:48;;;;;;;10.38;6.32;;;;;;;0.98;100.00;100778.16;5056024;28;20040;-72
2021/12/25 06:45:15;;;;;;;8.65;5.60;;;;;;;0.81;100.00;100791.38;5057371;28;20331;-73
2021/12/25 06:47:40;;;;;;;6.55;5.45;;;;;;;0.85;100.00;100797.16;5057878;28;20059;-72
2021/12/25 06:50:07;;;;;;;9.07;5.25;;;;;;;0.73;100.00;100797.84;5060870;28;20036;-72
2021/12/25 06:52:35;;;;;;;6.25;4.57;;;;;;;0.68;100.00;100803.06;5062831;28;20051;-73
2021/12/25 06:55:01;;;;;;;8.73;5.38;;;;;;;0.71;100.00;100815.31;5061723;28;20051;-73
2021/12/25 06:57:28;;;;;;;8.32;5.07;;;;;;;0.50;100.00;100808.38;5037890;28;20036;-74
2021/12/25 06:59:54;;;;;;;9.82;5.00;;;;;;;0.47;100.00;100806.13;5026933;28;20029;-72
2021/12/25 07:02:19;;;;;;;9.82;5.35;;;;;;;0.70;100.00;100813.66;5050426;28;20032;-73
2021/12/25 07:04:46;;;;;;;7.57;4.60;;;;;;;0.42;100.00;100819.44;5054318;28;20124;-73
2021/12/25 07:07:11;;;;;;;7.55;4.82;;;;;;;0.31;100.00;100813.69;5027495;28;20036;-74
2021/12/25 07:09:38;;;;;;;7.50;4.78;;;;;;;0.25;100.00;100811.00;5062578;28;20396;-72
2021/12/25 07:12:05;;;;;;;8.50;4.70;;;;;;;0.26;100.00;100818.88;5031265;28;20486;-73
2021/12/25 07:14:31;;;;;;;4.95;4.45;;;;;;;0.01;100.00;100820.63;5041469;28;20024;-73
2021/12/25 07:16:56;;;;;;;9.45;3.95;;;;;;;-0.08;100.00;100831.66;5065211;28;20344;-73
2021/12/25 07:19:22;;;;;;;6.38;4.18;;;;;;;0.14;100.00;100839.47;5048885;28;20142;-73
2021/12/25 07:21:47;;;;;;;5.40;4.05;;;;;;;-0.12;100.00;100829.59;5035640;28;20029;-73
2021/12/25 07:24:14;;;;;;;6.75;4.13;;;;;;;-0.11;100.00;100833.94;5054231;28;20048;-72
2021/12/25 07:26:40;;;;;;;4.60;3.50;;;;;;;-0.18;100.00;100836.66;5026207;28;20086;-72
2021/12/25 07:29:06;;;;;;;6.72;3.50;;;;;;;-0.24;100.00;100840.19;5048513;28;20329;-73
2021/12/25 07:31:31;;;;;;;5.22;3.90;;;;;;;-0.26;100.00;100836.91;5048462;28;20679;-73
2021/12/25 07:33:57;;;;;;;6.22;3.38;;;;;;;-0.27;100.00;100836.03;5026116;28;20135;-73
2021/12/25 07:36:23;;;;;;;5.63;3.60;;;;;;;-0.45;100.00;100852.84;5058752;28;20054;-73
2021/12/25 07:38:49;;;;;;;4.40;3.67;;;;;;;-0.24;100.00;100845.59;5051214;28;20052;-74
2021/12/25 07:41:14;;;;;;;5.18;3.53;;;;;;;-0.57;100.00;100849.97;5042386;28;20495;-73
2021/12/25 07:43:41;;;;;;;4.50;3.20;;;;;;;-0.57;100.00;100852.66;5060367;28;20358;-74
2021/12/25 07:46:06;;;;;;;5.78;3.78;;;;;;;-0.66;100.00;100845.00;5031167;28;20032;-73
2021/12/25 07:48:33;;;;;;;6.75;3.28;;;;;;;-0.50;100.00;100857.22;5060384;28;20036;-73
2021/12/25 07:51:02;;;;;;;4.20;3.40;;;;;;;-0.70;100.00;100857.25;5046433;28;20320;-73
2021/12/25 07:53:28;;;;;;;4.43;3.35;;;;;;;-0.55;100.00;100860.53;5041009;28;20041;-72
2021/12/25 07:55:53;;;;;;;4.70;3.60;;;;;;;-0.60;100.00;100865.72;5056911;28;20029;-72
2021/12/25 07:58:19;;;;;;;6.28;3.33;;;;;;;-0.70;100.00;100876.09;5053960;28;20024;-73
2021/12/25 08:00:45;;;;;;;4.70;3.03;;;;;;;-0.66;100.00;100878.13;5050530;28;20124;-73
2021/12/25 08:03:11;;;;;;;4.45;2.90;;;;;;;-0.58;100.00;100866.34;5040928;28;20032;-74
2021/12/25 08:05:37;;;;;;;5.65;3.20;;;;;;;-0.76;100.00;100866.97;5044614;28;20455;-74
2021/12/25 08:08:03;;;;;;;6.75;2.83;;;;;;;-0.72;100.00;100872.75;5044365;28;20397;-73
2021/12/25 08:10:29;;;;;;;4.95;3.13;;;;;;;-0.63;100.00;100877.72;5063856;28;20111;-74
2021/12/25 08:12:58;;;;;;;8.63;3.08;;;;;;;-0.82;100.00;100882.09;5046434;28;20484;-71
2021/12/25 08:15:26;;;;;;;4.55;2.75;;;;;;;-0.82;100.00;100889.31;5024173;28;20029;-72
2021/12/25 08:17:53;;;;;;;5.28;3.15;;;;;;;-0.76;100.00;100883.94;5043618;28;20413;-73
2021/12/25 08:20:19;;;;;;;5.35;2.75;;;;;;;-0.84;100.00;100881.44;5060807;28;20036;-73
2021/12/25 08:22:48;;;;;;;4.25;2.65;;;;;;;-0.77;100.00;100890.38;5034967;28;20032;-73
2021/12/25 08:25:15;;;;;;;6.00;2.85;;;;;;;-0.78;100.00;100890.56;5059742;28;20044;-72
2021/12/25 08:27:45;;;;;;;3.38;2.67;;;;;;;-0.94;100.00;100889.09;5040695;28;20078;-73
2021/12/25 08:30:15;;;;;;;3.53;2.92;;;;;;;-0.71;100.00;100901.34;5042641;28;20125;-72
2021/12/25 08:32:41;;;;;;;2.92;2.33;;;;;;;-0.68;100.00;100890.16;5058711;28;20036;-72
2021/12/25 08:35:09;;;;;;;4.78;2.85;;;;;;;-0.57;100.00;100903.00;5059515;28;20059;-73
2021/12/25 08:37:34;;;;;;;4.20;2.33;;;;;;;-0.65;100.00;100906.72;5058751;28;20036;-74
2021/12/25 08:40:01;;;;;;;5.32;2.15;;;;;;;-0.56;100.00;100912.72;5023842;28;20055;-73
2021/12/25 08:42:27;;;;;;;4.57;2.25;;;;;;;-0.76;100.00;100907.34;5049858;28;20028;-74
2021/12/25 08:45:04;;;;;;;4.05;2.00;;;;;;;-0.84;100.00;100910.22;5025475;28;20140;-73
2021/12/25 08:47:36;;;;;;;3.78;1.80;;;;;;;-0.94;100.00;100924.91;5032840;28;20046;-74
2021/12/25 08:50:08;;;;;;;2.90;1.70;;;;;;;-0.72;100.00;100929.28;5065828;28;20024;-74
2021/12/25 08:52:35;;;;;;;4.18;2.08;;;;;;;-0.68;100.00;100911.72;5054707;28;20779;-74
2021/12/25 08:55:00;;;;;;;4.28;2.05;;;;;;;-0.79;100.00;100932.81;5051615;28;20043;-74
2021/12/25 08:57:26;;;;;;;3.47;1.40;;;;;;;-0.82;100.00;100927.00;5063837;28;20032;-73
2021/12/25 08:59:54;;;;;;;3.78;1.80;;;;;;;-0.81;100.00;100934.88;5050243;28;20086;-73
2021/12/25 09:02:20;;;;;;;3.25;1.55;;;;;;;-0.76;100.00;100937.78;5045082;28;20052;-73
2021/12/25 09:04:50;;;;;;;1.60;1.40;;;;;;;-0.70;100.00;100936.16;5048740;28;20025;-73
2021/12/25 09:07:15;;;;;;;2.05;1.55;;;;;;;-0.60;100.00;100941.94;5060520;28;20025;-73
2021/12/25 09:09:41;;;;;;;4.47;2.03;;;;;;;-0.79;100.00;100931.97;5056180;28;20094;-74
2021/12/25 09:12:14;;;;;;;4.85;2.08;;;;;;;-0.80;100.00;100939.22;5064761;28;20614;-72
2021/12/25 09:14:40;;;;;;;2.22;1.83;;;;;;;-0.94;100.00;100940.22;5049313;28;20068;-74
2021/12/25 09:17:13;;;;;;;2.45;1.80;;;;;;;-1.01;100.00;100940.22;5054258;28;20143;-74
2021/12/25 09:19:40;;;;;;;2.05;1.65;;;;;;;-0.73;100.00;100954.56;5048581;28;20042;-72
2021/12/25 09:22:09;;;;;;;2.60;1.80;;;;;;;-0.61;100.00;100950.22;5061315;28;20119;-74
2021/12/25 09:24:35;;;;;;;3.22;2.13;;;;;;;-0.93;100.00;100950.78;5044303;28;20021;-72
2021/12/25 09:27:01;;;;;;;3.00;2.30;;;;;;;-0.71;100.00;100947.13;5060902;28;20032;-74
2021/12/25 09:29:26;;;;;;;3.25;2.08;;;;;;;-0.69;100.00;100947.72;5064164;28;20497;-73
2021/12/25 09:31:56;;;;;;;3.55;1.98;;;;;;;-0.45;100.00;100959.78;5033000;28;20064;-73
2021/12/25 09:34:22;;;;;;;3.47;2.00;;;;;;;-0.66;100.00;100953.53;5031187;28;20151;-73
2021/12/25 09:36:47;;;;;;;3.85;2.22;;;;;;;-0.58;100.00;100949.81;5023321;28;20052;-73
2021/12/25 09:39:12;;;;;;;3.17;2.40;;;;;;;-0.69;100.00;100948.56;5039720;28;20213;-72
2021/12/25 09:41:38;;;;;;;1.90;1.70;;;;;;;-0.45;100.00;100947.13;5048441;28;20032;-74
2021/12/25 09:44:05;;;;;;;3.45;2.25;;;;;;;-0.54;100.00;100961.00;5044934;28;20457;-74
2021/12/25 09:46:31;;;;;;;3.42;2.45;;;;;;;-0.54;100.00;100955.63;5015052;28;20036;-72
2021/12/25 09:48:57;;;;;;;6.05;2.60;;;;;;;-0.40;100.00;100968.88;5053204;28;20025;-72
2021/12/25 09:51:23;;;;;;;5.30;2.30;;;;;;;-0.17;100.00;100962.25;5053831;28;20063;-73
2021/12/25 09:53:56;;;;;;;2.97;2.10;;;;;;;-0.23;100.00;100968.47;5053134;28;20111;-72
2021/12/25 09:56:22;;;;;;;2.28;2.08;;;;;;;-0.35;100.00;100962.06;5050646;28;20382;-73
2021/12/25 09:58:49;;;;;;;4.32;2.13;;;;;;;-0.12;100.00;100969.72;5028676;28;20497;-73
2021/12/25 10:01:35;;;;;;;4.82;2.40;;;;;;;-0.17;100.00;100964.13;5018471;28;20449;-73
2021/12/25 10:04:01;;;;;;;2.83;2.03;;;;;;;0.06;100.00;100978.00;5057352;28;20545;-73
2021/12/25 10:06:32;;;;;;;2.40;1.92;;;;;;;-0.12;100.00;100967.84;5056450;28;20059;-73
2021/12/25 10:08:58;;;;;;;4.25;2.30;;;;;;;0.03;100.00;100966.81;5051049;28;20155;-73
2021/12/25 10:11:25;;;;;;;3.55;2.00;;;;;;;-0.40;100.00;100968.88;5051822;28;20178;-72
2021/12/25 10:13:57;;;;;;;3.72;1.80;;;;;;;0.18;100.00;100967.41;5047725;28;20055;-72
2021/12/25 10:16:29;;;;;;;2.72;1.90;;;;;;;0.03;100.00;100964.13;5059778;28;20139;-73
2021/12/25 10:19:16;;;;;;;2.45;1.67;;;;;;;0.06;100.00;100967.22;5054004;28;20080;-72
2021/12/25 10:21:43;;;;;;;3.42;1.80;;;;;;;-0.15;100.00;100976.34;5049492;28;20520;-72
2021/12/25 10:24:14;;;;;;;3.88;2.10;;;;;;;-0.45;100.00;100965.16;5051511;28;20100;-73
2021/12/25 10:26:42;;;;;;;2.53;1.55;;;;;;;-0.20;100.00;100973.44;5051323;28;20400;-72
2021/12/25 10:29:25;;;;;;;1.55;1.45;;;;;;;-0.33;100.00;100976.16;5049213;28;20444;-74
2021/12/25 10:32:04;;;;;;;;;;;;;;;;;;;;;
2021/12/25 10:34:31;;;;;;;2.33;1.75;;;;;;;-0.51;100.00;100969.50;5059141;28;20119;-72
2021/12/25 10:37:10;;;;;;;1.60;1.50;;;;;;;-0.50;100.00;100964.97;5053484;28;20016;-72
2021/12/25 10:39:36;;;;;;;2.17;1.27;;;;;;;-0.66;100.00;100975.06;5043974;28;20028;-73
2021/12/25 10:42:11;;;;;;;3.08;1.48;;;;;;;-0.62;100.00;100968.25;5032202;28;20025;-71
2021/12/25 10:44:50;;;;;;;1.73;1.48;;;;;;;-0.30;100.00;100976.56;5052227;28;20652;-72
2021/12/25 10:47:24;;;;;;;2.25;1.30;;;;;;;-0.22;100.00;100975.53;5057949;28;20654;-73
2021/12/25 10:50:10;;;;;;;3.33;1.50;;;;;;;-0.38;100.00;100980.31;5059707;28;20032;-74
2021/12/25 10:52:41;;;;;;;1.55;1.10;;;;;;;-0.24;100.00;100978.44;5056532;28;20119;-73
2021/12/25 10:55:19;;;;;;;1.02;1.00;;;;;;;-0.40;100.00;100976.97;5049668;28;20446;-74
2021/12/25 10:57:49;;;;;;;3.08;1.25;;;;;;;-0.36;100.00;100969.34;5053370;28;20417;-73
2021/12/25 11:00:14;;;;;;;2.40;1.33;;;;;;;-0.24;100.00;100964.97;5043142;28;20045;-73
2021/12/25 11:02:46;;;;;;;1.35;1.00;;;;;;;0.06;100.00;100966.41;5046394;28;20087;-72
2021/12/25 11:05:20;;;;;;;1.35;1.00;;;;;;;0.18;100.00;100962.00;5043825;28;20025;-72
2021/12/25 11:07:47;;;;;;;1.63;1.13;;;;;;;0.10;100.00;100955.00;5050234;28;20166;-74
2021/12/25 11:10:16;;;;;;;2.03;1.15;;;;;;;0.02;100.00;100957.06;5045988;28;20115;-73
2021/12/25 11:12:42;;;;;;;1.33;1.10;;;;;;;0.07;100.00;100966.19;5062748;28;20040;-74
2021/12/25 11:15:20;;;;;;;1.35;1.25;;;;;;;0.18;100.00;100962.84;5057389;28;20051;-72
2021/12/25 11:17:51;;;;;;;3.08;1.30;;;;;;;0.16;100.00;100974.88;5053913;28;20036;-72
2021/12/25 11:20:27;;;;;;;2.97;1.20;;;;;;;0.50;100.00;100972.94;5050395;28;20036;-72
2021/12/25 11:22:56;;;;;;;1.75;1.30;;;;;;;0.54;100.00;100968.75;5051654;28;20028;-74
2021/12/25 11:25:26;;;;;;;2.55;1.23;;;;;;;0.35;100.00;100967.81;5046024;28;20199;-74
2021/12/25 11:27:53;;;;;;;2.83;1.38;;;;;;;0.30;100.00;100965.72;5054594;28;20017;-74
2021/12/25 11:30:21;;;;;;;2.15;1.23;;;;;;;0.62;100.00;100965.00;5045155;28;20461;-73
2021/12/25 11:32:47;;;;;;;2.45;1.10;;;;;;;0.38;100.00;100958.44;5049267;28;20128;-74
2021/12/25 11:35:15;;;;;;;1.75;1.27;;;;;;;0.16;100.00;100954.16;5057269;28;20487;-74
2021/12/25 11:37:41;;;;;;;1.17;1.00;;;;;;;0.30;100.00;100965.72;5054414;28;20262;-73
2021/12/25 11:40:09;;;;;;;2.97;1.20;;;;;;;0.46;100.00;100964.47;5042012;28;20027;-73
2021/12/25 11:42:45;;;;;;;2.00;1.02;;;;;;;0.33;100.00;100962.63;5048091;28;20029;-74
2021/12/25 11:45:18;;;;;;;1.90;1.30;;;;;;;0.50;100.00;100952.19;5057092;28;20765;-72
2021/12/25 11:47:53;;;;;;;1.88;1.30;;;;;;;0.45;100.00;100952.00;5041685;28;20040;-73
2021/12/25 11:50:24;;;;;;;2.15;1.30;;;;;;;0.47;100.00;100952.59;5053082;28;20024;-73
2021/12/25 11:54:07;;;;;;;1.95;1.10;;;;;;;0.48;100.00;100954.28;5062823;28;20028;-73
2021/12/25 11:58:58;;;;;;;1.10;1.00;;;;;;;0.24;100.00;100953.09;5058278;28;20032;-73
2021/12/25 12:01:30;;;;;;;2.08;1.17;;;;;;;0.51;100.00;100948.47;5045760;28;20029;-73
2021/12/25 12:03:56;;;;;;;2.22;1.15;;;;;;;0.48;100.00;100942.66;5047102;28;20028;-73
2021/12/25 12:06:44;;;;;;;2.08;1.30;;;;;;;0.68;100.00;100943.41;5056104;28;20024;-73
2021/12/25 12:09:12;;;;;;;1.73;1.63;;;;;;;0.97;100.00;100946.59;5054728;28;20029;-72
2021/12/25 12:11:40;;;;;;;2.25;1.20;;;;;;;0.80;100.00;100940.84;5042362;28;20051;-72
2021/12/25 12:14:15;;;;;;;1.30;1.20;;;;;;;0.60;100.00;100943.63;5058202;28;20374;-74
2021/12/25 12:16:46;;;;;;;1.42;1.20;;;;;;;0.96;100.00;100941.41;5049839;28;20523;-73
2021/12/25 12:22:28;;;;;;;1.63;1.00;;;;;;;0.51;100.00;100944.94;5059551;28;20103;-74
2021/12/25 12:27:46;;;;;;;1.25;0.85;;;;;;;0.52;100.00;100927.69;5054012;28;20857;-73
2021/12/25 12:30:33;;;;;;;1.30;0.90;;;;;;;0.58;100.00;100940.34;5058716;28;20043;-72
2021/12/25 12:33:22;;;;;;;3.72;1.20;;;;;;;0.97;100.00;100933.09;5064844;28;20062;-73
2021/12/25 12:35:53;;;;;;;1.27;0.90;;;;;;;0.44;100.00;100936.03;5049665;28;20448;-73
2021/12/25 12:38:27;;;;;;;1.90;1.20;;;;;;;0.62;100.00;100930.75;5047053;28;20028;-74